Time;durP1;ratioP1;P1;durP2;ratioP2;P2;SDS_P1;SDS_P2;PMS_P1;PMS_P2;Temp;Humidity;BMP_temperature;BMP_pressure;BME280_temperature;BME280_humidity;BME280_pressure;Samples;Min_cycle;Max_cycle;Signal;HPM_P1;HPM_P2
2024/03/25 00:03:14;;;;;;;3.9;2.3;;;;;;;3.26;76.83;97343.333333333;;;;
2024/03/25 00:14:14;;;;;;;3.9;2.3;;;;;;;3.09;76.99;97346.666666667;;;;
2024/03/25 00:24:14;;;;;;;3.9;2.3;;;;;;;2.96;78.02;97341.666666667;;;;
2024/03/25 00:35:14;;;;;;;5.2;1.8;;;;;;;2.9;79.42;97330;;;;
2024/03/25 00:46:14;;;;;;;5.2;1.8;;;;;;;2.93;81.35;97335;;;;
2024/03/25 00:56:14;;;;;;;5.6;2.5;;;;;;;2.96;82.16;97330;;;;
2024/03/25 01:06:14;;;;;;;5.6;2.5;;;;;;;3.2;82.66;97326.666666667;;;;
2024/03/25 01:16:14;;;;;;;5.6;2.5;;;;;;;3.49;82.07;97323.333333333;;;;
2024/03/25 01:27:14;;;;;;;3.6;1.7;;;;;;;3.75;81.45;97316.666666667;;;;
2024/03/25 01:38:14;;;;;;;3.6;1.7;;;;;;;3.87;81.14;97318.333333333;;;;
2024/03/25 01:48:14;;;;;;;3.6;1.7;;;;;;;3.83;80.94;97315;;;;
2024/03/25 01:58:14;;;;;;;3.7;2;;;;;;;3.71;81.04;97315;;;;
2024/03/25 02:09:14;;;;;;;3.7;2;;;;;;;3.73;81.35;97316.666666667;;;;
2024/03/25 02:19:14;;;;;;;3.7;2;;;;;;;3.84;81.34;97311.666666667;;;;
2024/03/25 02:30:14;;;;;;;4.7;1.9;;;;;;;4.01;80.77;97311.666666667;;;;
2024/03/25 02:40:14;;;;;;;4.7;1.9;;;;;;;4.11;80.79;97305;;;;
2024/03/25 02:50:14;;;;;;;4.7;1.9;;;;;;;4.17;80.44;97295;;;;
2024/03/25 03:01:14;;;;;;;4.4;1.9;;;;;;;4.14;79.85;97301.666666667;;;;
2024/03/25 03:12:14;;;;;;;4.4;1.9;;;;;;;3.87;80.07;97301.666666667;;;;
2024/03/25 03:22:14;;;;;;;4.4;1.9;;;;;;;3.72;80.34;97310;;;;
2024/03/25 03:33:14;;;;;;;2.4;1.2;;;;;;;3.58;80.53;97320;;;;
2024/03/25 03:44:15;;;;;;;2.4;1.2;;;;;;;3.54;80.99;97323.333333333;;;;
2024/03/25 03:54:14;;;;;;;4.8;1.4;;;;;;;3.6;80.7;97330;;;;
2024/03/25 04:04:14;;;;;;;4.8;1.4;;;;;;;3.5;80.2;97328.333333333;;;;
2024/03/25 04:15:17;;;;;;;4.8;1.4;;;;;;;3.25;80.53;97321.666666667;;;;
2024/03/25 04:26:14;;;;;;;2.7;1.2;;;;;;;3.02;80.74;97321.666666667;;;;
2024/03/25 04:36:14;;;;;;;2.7;1.2;;;;;;;2.94;81.27;97328.333333333;;;;
2024/03/25 04:47:15;;;;;;;2.7;1.2;;;;;;;3.03;80.56;97325;;;;
2024/03/25 04:57:14;;;;;;;4.3;1.8;;;;;;;3.06;80.35;97328.333333333;;;;
2024/03/25 05:08:14;;;;;;;4.3;1.8;;;;;;;3.42;79.76;97331.666666667;;;;
2024/03/25 05:18:14;;;;;;;4.3;1.8;;;;;;;3.91;78.49;97336.666666667;;;;
2024/03/25 05:29:14;;;;;;;3.2;1.7;;;;;;;4.21;77.76;97341.666666667;;;;
2024/03/25 05:39:14;;;;;;;3.2;1.7;;;;;;;4.56;77.06;97341.666666667;;;;
2024/03/25 05:49:14;;;;;;;3.2;1.7;;;;;;;4.81;75.98;97346.666666667;;;;
2024/03/25 06:00:14;;;;;;;3.1;1.5;;;;;;;5.15;76.16;97361.666666667;;;;
2024/03/25 06:10:14;;;;;;;3.1;1.5;;;;;;;5.27;78;97368.333333333;;;;
2024/03/25 06:21:14;;;;;;;3.1;1.5;;;;;;;5.23;78.6;97375;;;;
2024/03/25 06:42:15;;;;;;;3;1.8;;;;;;;5.22;78.97;97386.666666667;;;;
2024/03/25 06:52:14;;;;;;;3;1.8;;;;;;;5.38;79.47;97391.666666667;;;;
2024/03/25 07:02:14;;;;;;;3;1.2;;;;;;;5.41;79.05;97400;;;;
2024/03/25 07:13:14;;;;;;;3;1.2;;;;;;;5.74;78.8;97408.333333333;;;;
2024/03/25 07:23:14;;;;;;;3;1.2;;;;;;;5.9;78.98;97415;;;;
2024/03/25 07:33:14;;;;;;;2;1;;;;;;;6.29;78.49;97418.333333333;;;;
2024/03/25 07:44:14;;;;;;;2;1;;;;;;;6.25;78.46;97426.666666667;;;;
2024/03/25 07:55:15;;;;;;;1.8;1;;;;;;;6.4;79.93;97440;;;;
2024/03/25 08:05:14;;;;;;;1.8;1;;;;;;;6.79;80.01;97443.333333333;;;;
2024/03/25 08:16:14;;;;;;;1.8;1;;;;;;;7.39;78.6;97438.333333333;;;;
2024/03/25 08:26:14;;;;;;;2.5;0.9;;;;;;;7.56;76.38;97441.666666667;;;;
2024/03/25 08:36:14;;;;;;;2.5;0.9;;;;;;;7.51;75.23;97438.333333333;;;;
2024/03/25 08:47:14;;;;;;;2.5;0.9;;;;;;;7.54;75.54;97451.666666667;;;;
2024/03/25 08:58:14;;;;;;;2.7;1.4;;;;;;;7.29;75.56;97460;;;;
2024/03/25 09:08:14;;;;;;;2.7;1.4;;;;;;;7.17;74.87;97458.333333333;;;;
2024/03/25 09:19:14;;;;;;;2.7;1.4;;;;;;;7.28;75.76;97466.666666667;;;;
2024/03/25 09:30:14;;;;;;;3.2;1.3;;;;;;;7.23;73.49;97478.333333333;;;;
2024/03/25 09:40:14;;;;;;;3.2;1.3;;;;;;;6.78;77.29;97500;;;;
2024/03/25 09:51:14;;;;;;;3.2;1.3;;;;;;;6.93;79.9;97511.666666667;;;;
2024/03/25 10:01:14;;;;;;;3.6;1.7;;;;;;;7.45;78.61;97503.333333333;;;;
2024/03/25 10:12:14;;;;;;;3.6;1.7;;;;;;;7.81;76.57;97498.333333333;;;;
2024/03/25 10:23:14;;;;;;;3.6;1.7;;;;;;;8.72;77.28;97488.333333333;;;;
2024/03/25 10:33:14;;;;;;;4;2.1;;;;;;;9.06;71.96;97481.666666667;;;;
2024/03/25 10:44:14;;;;;;;4;2.1;;;;;;;8.55;71.35;97486.666666667;;;;
2024/03/25 10:54:14;;;;;;;4.4;2.4;;;;;;;9.1;72.15;97481.666666667;;;;
2024/03/25 11:05:14;;;;;;;4.4;2.4;;;;;;;9.03;67.56;97476.666666667;;;;
2024/03/25 11:16:14;;;;;;;4.4;2.4;;;;;;;7.84;72.77;97523.333333333;;;;
2024/03/25 11:26:14;;;;;;;4.1;1.7;;;;;;;5.49;80.46;97560;;;;
2024/03/25 11:36:14;;;;;;;4.1;1.7;;;;;;;5.12;83.1;97543.333333333;;;;
2024/03/25 11:46:14;;;;;;;4.1;1.7;;;;;;;5.4;84.42;97543.333333333;;;;
2024/03/25 11:56:14;;;;;;;2.6;1.4;;;;;;;6.04;83.68;97533.333333333;;;;
2024/03/25 12:07:14;;;;;;;2.6;1.4;;;;;;;6.86;83.99;97536.666666667;;;;
2024/03/25 12:17:15;;;;;;;2.6;1.4;;;;;;;7.65;83.23;97533.333333333;;;;
2024/03/25 12:28:14;;;;;;;3.5;1.4;;;;;;;8.64;78.34;97538.333333333;;;;
2024/03/25 12:38:14;;;;;;;3.5;1.4;;;;;;;8.2;75.76;97550;;;;
2024/03/25 12:49:14;;;;;;;3.5;1.4;;;;;;;7.15;77.49;97568.333333333;;;;
2024/03/25 13:00:14;;;;;;;3.4;1.8;;;;;;;6.64;79.35;97565;;;;
2024/03/25 13:10:14;;;;;;;3.4;1.8;;;;;;;6.63;81.23;97560;;;;
2024/03/25 13:20:14;;;;;;;3.4;1.8;;;;;;;7.23;79.41;97555;;;;
2024/03/25 13:30:14;;;;;;;3.3;1.2;;;;;;;7.9;77.56;97560;;;;
2024/03/25 13:41:18;;;;;;;3.3;1.2;;;;;;;8.55;76.5;97563.333333333;;;;
2024/03/25 13:52:14;;;;;;;3.3;1.2;;;;;;;8.41;74.04;97581.666666667;;;;
2024/03/25 14:02:14;;;;;;;2.9;1.4;;;;;;;7.45;78.14;97593.333333333;;;;
2024/03/25 14:12:14;;;;;;;2.9;1.4;;;;;;;7.68;79.8;97590;;;;
2024/03/25 14:22:14;;;;;;;2.9;1.4;;;;;;;7.89;79.6;97586.666666667;;;;
2024/03/25 14:32:14;;;;;;;5;1.8;;;;;;;8.37;78.11;97583.333333333;;;;
2024/03/25 14:43:18;;;;;;;5;1.8;;;;;;;8.63;75.04;97586.666666667;;;;
2024/03/25 14:54:14;;;;;;;3.1;1.8;;;;;;;8.65;72.13;97588.333333333;;;;
2024/03/25 15:04:14;;;;;;;3.1;1.8;;;;;;;8.86;73.51;97595;;;;
2024/03/25 15:14:14;;;;;;;3.1;1.8;;;;;;;8.82;72.74;97600;;;;
2024/03/25 15:24:14;;;;;;;4.7;2;;;;;;;8.84;71.76;97595;;;;
2024/03/25 15:35:14;;;;;;;4.7;2;;;;;;;12.37;64.56;97588.333333333;;;;
2024/03/25 15:46:14;;;;;;;4.7;2;;;;;;;12.01;61.72;97608.333333333;;;;
2024/03/25 15:56:15;;;;;;;4.2;2.5;;;;;;;10.64;65.11;97613.333333333;;;;
2024/03/25 16:07:14;;;;;;;4.2;2.5;;;;;;;10.31;66.5;97616.666666667;;;;
2024/03/25 16:17:14;;;;;;;4.2;2.5;;;;;;;9.74;66.12;97630;;;;
2024/03/25 16:28:15;;;;;;;6.6;2.8;;;;;;;9.04;69.19;97638.333333333;;;;
2024/03/25 16:39:14;;;;;;;6.6;2.8;;;;;;;8.28;72.21;97650;;;;
2024/03/25 16:50:14;;;;;;;6.6;2.8;;;;;;;7.84;74.8;97671.666666667;;;;
2024/03/25 17:01:14;;;;;;;6.9;2.9;;;;;;;7.38;76.2;97671.666666667;;;;
2024/03/25 17:11:15;;;;;;;6.9;2.9;;;;;;;7.22;77.91;97685;;;;
2024/03/25 17:21:14;;;;;;;6.9;2.9;;;;;;;6.53;79.53;97715;;;;
2024/03/25 17:31:14;;;;;;;7;3.7;;;;;;;5.93;80.49;97718.333333333;;;;
2024/03/25 17:42:14;;;;;;;7;3.7;;;;;;;5.52;82.47;97733.333333333;;;;
2024/03/25 17:52:14;;;;;;;7;3.7;;;;;;;5.5;82.72;97741.666666667;;;;
2024/03/25 18:02:16;;;;;;;7.8;4;;;;;;;5.3;85.08;97751.666666667;;;;
2024/03/25 18:13:14;;;;;;;7.8;4;;;;;;;5.04;84.98;97755;;;;
2024/03/25 18:24:14;;;;;;;9.6;5.4;;;;;;;4.8;86.1;97765;;;;
2024/03/25 18:34:14;;;;;;;9.6;5.4;;;;;;;4.63;86.14;97768.333333333;;;;
2024/03/25 18:45:14;;;;;;;9.6;5.4;;;;;;;4.33;86.17;97778.333333333;;;;
2024/03/25 18:56:14;;;;;;;11.3;6.3;;;;;;;4.12;86.99;97785;;;;
2024/03/25 19:06:14;;;;;;;11.3;6.3;;;;;;;4.05;86.9;97795;;;;
2024/03/25 19:17:15;;;;;;;11.3;6.3;;;;;;;3.92;87.23;97798.333333333;;;;
2024/03/25 19:27:14;;;;;;;13.7;7.3;;;;;;;3.78;87.48;97800;;;;
2024/03/25 19:38:14;;;;;;;13.7;7.3;;;;;;;3.71;87.2;97805;;;;
2024/03/25 19:48:14;;;;;;;13.7;7.3;;;;;;;3.56;87.51;97803.333333333;;;;
2024/03/25 19:58:15;;;;;;;11.9;7.1;;;;;;;3.52;87.47;97805;;;;
2024/03/25 20:09:14;;;;;;;11.9;7.1;;;;;;;3.35;87.75;97810;;;;
2024/03/25 20:19:14;;;;;;;11.9;7.1;;;;;;;3.27;88.13;97823.333333333;;;;
2024/03/25 20:30:14;;;;;;;12.6;5.5;;;;;;;3.4;88.45;97828.333333333;;;;
2024/03/25 20:40:14;;;;;;;12.6;5.5;;;;;;;3.4;88.15;97833.333333333;;;;
2024/03/25 20:51:14;;;;;;;12.6;5.5;;;;;;;3.32;88.24;97841.666666667;;;;
2024/03/25 21:02:15;;;;;;;13.6;7.2;;;;;;;3.27;88.02;97848.333333333;;;;
2024/03/25 21:12:14;;;;;;;13.6;7.2;;;;;;;3.06;87.7;97856.666666667;;;;
2024/03/25 21:23:16;;;;;;;14.3;6.3;;;;;;;3.04;88.07;97858.333333333;;;;
2024/03/25 21:33:14;;;;;;;14.3;6.3;;;;;;;2.91;87.62;97863.333333333;;;;
2024/03/25 21:44:14;;;;;;;14.3;6.3;;;;;;;2.64;87.29;97863.333333333;;;;
2024/03/25 21:55:14;;;;;;;11.1;6;;;;;;;2.41;87.67;97871.666666667;;;;
2024/03/25 22:06:14;;;;;;;11.1;6;;;;;;;2.25;87.85;97875;;;;
2024/03/25 22:16:14;;;;;;;11.1;6;;;;;;;2.15;88.11;97871.666666667;;;;
2024/03/25 22:27:14;;;;;;;14.8;7.2;;;;;;;2.1;89.02;97881.666666667;;;;
2024/03/25 22:38:14;;;;;;;14.8;7.2;;;;;;;2.17;89.81;97888.333333333;;;;
2024/03/25 22:48:14;;;;;;;14.8;7.2;;;;;;;2.48;90.84;97891.666666667;;;;
2024/03/25 22:59:14;;;;;;;14.6;7.3;;;;;;;2.79;90.89;97900;;;;
2024/03/25 23:09:15;;;;;;;14.6;7.3;;;;;;;3.09;90.72;97898.333333333;;;;
2024/03/25 23:20:14;;;;;;;14.6;7.3;;;;;;;3.48;90.17;97905;;;;
2024/03/25 23:31:14;;;;;;;10.3;6.1;;;;;;;3.69;89.16;97896.666666667;;;;
2024/03/25 23:42:14;;;;;;;10.3;6.1;;;;;;;3.63;87.84;97893.333333333;;;;
2024/03/25 23:52:14;;;;;;;11;6.1;;;;;;;3.65;87.36;97885;;;;
